Leander — DEDP — position and weather

sailwx.info

Track history (hours):
 
Tides and Currents Weather Stations Pressure Air Temp Water Temp Dewpoint Dewpoint Depression Visibility Wind Speed Wind Dir Waves Ship Positions

Leander

Last reported at 2018-Jun-23 20:29 UTC. Time now 2018-Jun-25 14:16 UTC.
Position N 35°56' E 014°49'.

Length 144 m; draft 6 m.

Type: Ship. MMSI: 218731000.

Date/timePositionNaut miles runAvg speedWind from/ knotsBaromVisibWave heightAir tempDewpointWater temp
2018-Jun-23 20:29N 35°56' E 014°49'0 0.1
2018-Jun-23 19:47N 35°55' E 014°49'0 0.1
2018-Jun-23 19:23N 35°55' E 014°49'0 0.1
2018-Jun-23 18:53N 35°55' E 014°49'0 0.1
2018-Jun-23 18:29N 35°55' E 014°49'0 0.0
2018-Jun-23 17:59N 35°55' E 014°49'0 0.0
2018-Jun-23 17:23N 35°55' E 014°49'0 0.0
2018-Jun-23 16:59N 35°55' E 014°49'0 0.0
2018-Jun-23 16:17N 35°55' E 014°49'0 0.0
2018-Jun-23 15:59N 35°55' E 014°49'0 0.0
2018-Jun-23 15:29N 35°55' E 014°49'0 0.0
2018-Jun-23 14:59N 35°55' E 014°49'0 0.0
2018-Jun-23 14:29N 35°55' E 014°49'0 0.0
2018-Jun-23 13:59N 35°55' E 014°49'0 0.0
2018-Jun-23 13:29N 35°55' E 014°49'0 0.0
2018-Jun-23 12:53N 35°55' E 014°49'0 0.0
2018-Jun-23 12:29N 35°55' E 014°49'0 0.0
2018-Jun-23 11:59N 35°55' E 014°49'0 0.0
2018-Jun-23 11:23N 35°55' E 014°49'0 0.0
2018-Jun-23 10:59N 35°55' E 014°49'0 0.0
2018-Jun-23 09:59N 35°55' E 014°49'0 0.0
2018-Jun-22 18:41N 35°55' E 014°49'0 0.0
2018-Jun-22 18:29N 35°55' E 014°49'0 0.0
2018-Jun-22 14:23N 35°55' E 014°49'3 0.4
2018-Jun-22 06:56N 35°55' E 014°46'2 3.5
2018-Jun-22 06:25N 35°53' E 014°44'812.9
2018-Jun-22 05:46N 35°49' E 014°36'  
2018-Jun-19 23:36N 36°13' E 013°47'311.0
2018-Jun-19 23:20N 36°15' E 013°44'310.9
2018-Jun-19 23:00N 36°17' E 013°41'  
2018-Jun-16 17:17N 37°31' E 003°22'2211.4
2018-Jun-16 15:21N 37°26' E 002°56'12 8.7
2018-Jun-16 13:59N 37°23' E 002°41'611.6
2018-Jun-16 13:29N 37°21' E 002°34'611.6
2018-Jun-16 13:00N 37°19' E 002°27'611.4
2018-Jun-16 12:30N 37°18' E 002°20'611.4
2018-Jun-16 12:00N 37°16' E 002°14'711.4
2018-Jun-16 11:26N 37°14' E 002°06'511.5
2018-Jun-16 11:00N 37°13' E 001°60'711.4
2018-Jun-16 10:23N 37°11' E 001°51'511.4
2018-Jun-16 09:59N 37°10' E 001°46'511.2
2018-Jun-16 09:30N 37°08' E 001°39'611.3
2018-Jun-16 09:01N 37°07' E 001°33'611.4
2018-Jun-16 08:30N 37°05' E 001°25'611.3
2018-Jun-16 08:00N 37°04' E 001°19'611.4
2018-Jun-16 07:30N 37°02' E 001°12'611.5
2018-Jun-16 07:00N 37°00' E 001°05'611.4
2018-Jun-16 06:30N 36°59' E 000°58'611.3
2018-Jun-16 06:00N 36°57' E 000°51'611.1
2018-Jun-16 05:30N 36°56' E 000°45'611.2
2018-Jun-16 05:00N 36°54' E 000°38'511.1
2018-Jun-16 04:30N 36°53' E 000°31'611.2
2018-Jun-16 04:00N 36°51' E 000°25'611.0
2018-Jun-16 03:30N 36°50' E 000°18'611.0
2018-Jun-16 03:00N 36°49' E 000°11'511.1
2018-Jun-16 02:30N 36°47' E 000°05'611.0
2018-Jun-16 02:00N 36°45' W 000°02'510.9
2018-Jun-16 01:30N 36°44' W 000°08'510.9
2018-Jun-16 01:00N 36°42' W 000°15'510.8
2018-Jun-16 00:30N 36°40' W 000°21'510.9
2018-Jun-16 00:00N 36°38' W 000°28'611.2
2018-Jun-15 23:30N 36°38' W 000°34'510.6
2018-Jun-15 23:00N 36°37' W 000°41'5 9.8
2018-Jun-15 22:30N 36°36' W 000°47'710.0
2018-Jun-15 21:49N 36°34' W 000°55'410.0
2018-Jun-15 21:27N 36°33' W 000°59'510.3
2018-Jun-15 21:00N 36°31' W 001°05'710.0
2018-Jun-15 20:19N 36°29' W 001°13'310.4
2018-Jun-15 20:00N 36°29' W 001°17'713.3
2018-Jun-15 19:29N 36°27' W 001°25'713.8
2018-Jun-15 19:00N 36°25' W 001°33'714.3
2018-Jun-15 18:30N 36°23' W 001°42'17111.6
2018-Jun-15 03:45N 36°00' W 005°12'311.9
2018-Jun-15 03:30N 35°60' W 005°15'611.7
2018-Jun-15 03:00N 35°59' W 005°22'612.6
2018-Jun-15 02:30N 35°56' W 005°30'1311.9
2018-Jun-15 01:26N 35°55' W 005°45'8511.4
2018-Jun-14 17:57N 36°10' W 007°29'611.7
2018-Jun-14 17:28N 36°12' W 007°35'612.0
2018-Jun-14 17:00N 36°13' W 007°42'711.7
2018-Jun-14 16:21N 36°15' W 007°51'611.8
2018-Jun-14 15:52N 36°16' W 007°58'911.7
2018-Jun-14 15:06N 36°19' W 008°09'211.5
2018-Jun-14 14:55N 36°19' W 008°12'611.5
2018-Jun-14 14:26N 36°20' W 008°18'611.9
2018-Jun-14 13:57N 36°22' W 008°25'811.7
2018-Jun-14 13:17N 36°24' W 008°35'311.5
2018-Jun-14 13:01N 36°24' W 008°38'711.6
2018-Jun-14 12:24N 36°26' W 008°47'511.7
2018-Jun-14 12:00N 36°28' W 008°52'611.6
2018-Jun-14 11:30N 36°29' W 008°59'711.3
2018-Jun-14 10:53N 36°31' W 009°08'6311.3
2018-Jun-14 05:17N 37°27' W 009°44'311.7
2018-Jun-14 05:00N 37°30' W 009°45'611.7
2018-Jun-14 04:30N 37°36' W 009°47'811.6
2018-Jun-14 03:47N 37°44' W 009°49'911.8
2018-Jun-14 03:03N 37°53' W 009°52'311.6
2018-Jun-14 02:49N 37°55' W 009°53'411.7
2018-Jun-14 02:29N 37°59' W 009°54'611.4
2018-Jun-14 02:00N 38°04' W 009°55'611.7
2018-Jun-14 01:29N 38°10' W 009°57'611.5
2018-Jun-14 01:00N 38°16' W 009°59'611.3
2018-Jun-14 00:30N 38°21' W 010°00'611.4
2018-Jun-14 00:00N 38°27' W 010°02'611.7
2018-Jun-13 23:29N 38°33' W 010°03'511.3
2018-Jun-13 23:00N 38°38' W 010°05'611.8
2018-Jun-13 22:30N 38°44' W 010°06'611.9
2018-Jun-13 22:00N 38°50' W 010°06'611.6
2018-Jun-13 21:30N 38°56' W 010°06'611.5
2018-Jun-13 21:00N 39°01' W 010°06'612.0
2018-Jun-13 20:30N 39°07' W 010°06'  
Track history (hours):
 
Tides and Currents Weather Stations Pressure Air Temp Water Temp Dewpoint Dewpoint Depression Visibility Wind Speed Wind Dir Waves Ship Positions

Leander

Last reported at 2018-Jun-23 20:29 UTC. Time now 2018-Jun-25 14:16 UTC.
Position N 35°56' E 014°49'.

Length 144 m; draft 6 m.

Type: Ship. MMSI: 218731000.

Date/timePositionNaut miles runAvg speedWind from/ knotsBaromVisibWave heightAir tempDewpointWater temp
2018-Jun-23 20:29N 35°56' E 014°49'0 0.1
2018-Jun-23 19:47N 35°55' E 014°49'0 0.1
2018-Jun-23 19:23N 35°55' E 014°49'0 0.1
2018-Jun-23 18:53N 35°55' E 014°49'0 0.1
2018-Jun-23 18:29N 35°55' E 014°49'0 0.0
2018-Jun-23 17:59N 35°55' E 014°49'0 0.0
2018-Jun-23 17:23N 35°55' E 014°49'0 0.0
2018-Jun-23 16:59N 35°55' E 014°49'0 0.0
2018-Jun-23 16:17N 35°55' E 014°49'0 0.0
2018-Jun-23 15:59N 35°55' E 014°49'0 0.0
2018-Jun-23 15:29N 35°55' E 014°49'0 0.0
2018-Jun-23 14:59N 35°55' E 014°49'0 0.0
2018-Jun-23 14:29N 35°55' E 014°49'0 0.0
2018-Jun-23 13:59N 35°55' E 014°49'0 0.0
2018-Jun-23 13:29N 35°55' E 014°49'0 0.0
2018-Jun-23 12:53N 35°55' E 014°49'0 0.0
2018-Jun-23 12:29N 35°55' E 014°49'0 0.0
2018-Jun-23 11:59N 35°55' E 014°49'0 0.0
2018-Jun-23 11:23N 35°55' E 014°49'0 0.0
2018-Jun-23 10:59N 35°55' E 014°49'0 0.0
2018-Jun-23 09:59N 35°55' E 014°49'0 0.0
2018-Jun-22 18:41N 35°55' E 014°49'0 0.0
2018-Jun-22 18:29N 35°55' E 014°49'0 0.0
2018-Jun-22 14:23N 35°55' E 014°49'3 0.4
2018-Jun-22 06:56N 35°55' E 014°46'2 3.5
2018-Jun-22 06:25N 35°53' E 014°44'812.9
2018-Jun-22 05:46N 35°49' E 014°36'  
2018-Jun-19 23:36N 36°13' E 013°47'311.0
2018-Jun-19 23:20N 36°15' E 013°44'310.9
2018-Jun-19 23:00N 36°17' E 013°41'  
2018-Jun-16 17:17N 37°31' E 003°22'2211.4
2018-Jun-16 15:21N 37°26' E 002°56'12 8.7
2018-Jun-16 13:59N 37°23' E 002°41'611.6
2018-Jun-16 13:29N 37°21' E 002°34'611.6
2018-Jun-16 13:00N 37°19' E 002°27'611.4
2018-Jun-16 12:30N 37°18' E 002°20'611.4
2018-Jun-16 12:00N 37°16' E 002°14'711.4
2018-Jun-16 11:26N 37°14' E 002°06'511.5
2018-Jun-16 11:00N 37°13' E 001°60'711.4
2018-Jun-16 10:23N 37°11' E 001°51'511.4
2018-Jun-16 09:59N 37°10' E 001°46'511.2
2018-Jun-16 09:30N 37°08' E 001°39'611.3
2018-Jun-16 09:01N 37°07' E 001°33'611.4
2018-Jun-16 08:30N 37°05' E 001°25'611.3
2018-Jun-16 08:00N 37°04' E 001°19'611.4
2018-Jun-16 07:30N 37°02' E 001°12'611.5
2018-Jun-16 07:00N 37°00' E 001°05'611.4
2018-Jun-16 06:30N 36°59' E 000°58'611.3
2018-Jun-16 06:00N 36°57' E 000°51'611.1
2018-Jun-16 05:30N 36°56' E 000°45'611.2
2018-Jun-16 05:00N 36°54' E 000°38'511.1
2018-Jun-16 04:30N 36°53' E 000°31'611.2
2018-Jun-16 04:00N 36°51' E 000°25'611.0
2018-Jun-16 03:30N 36°50' E 000°18'611.0
2018-Jun-16 03:00N 36°49' E 000°11'511.1
2018-Jun-16 02:30N 36°47' E 000°05'611.0
2018-Jun-16 02:00N 36°45' W 000°02'510.9
2018-Jun-16 01:30N 36°44' W 000°08'510.9
2018-Jun-16 01:00N 36°42' W 000°15'510.8
2018-Jun-16 00:30N 36°40' W 000°21'510.9
2018-Jun-16 00:00N 36°38' W 000°28'611.2
2018-Jun-15 23:30N 36°38' W 000°34'510.6
2018-Jun-15 23:00N 36°37' W 000°41'5 9.8
2018-Jun-15 22:30N 36°36' W 000°47'710.0
2018-Jun-15 21:49N 36°34' W 000°55'410.0
2018-Jun-15 21:27N 36°33' W 000°59'510.3
2018-Jun-15 21:00N 36°31' W 001°05'710.0
2018-Jun-15 20:19N 36°29' W 001°13'310.4
2018-Jun-15 20:00N 36°29' W 001°17'713.3
2018-Jun-15 19:29N 36°27' W 001°25'713.8
2018-Jun-15 19:00N 36°25' W 001°33'714.3
2018-Jun-15 18:30N 36°23' W 001°42'17111.6
2018-Jun-15 03:45N 36°00' W 005°12'311.9
2018-Jun-15 03:30N 35°60' W 005°15'611.7
2018-Jun-15 03:00N 35°59' W 005°22'612.6
2018-Jun-15 02:30N 35°56' W 005°30'1311.9
2018-Jun-15 01:26N 35°55' W 005°45'8511.4
2018-Jun-14 17:57N 36°10' W 007°29'611.7
2018-Jun-14 17:28N 36°12' W 007°35'612.0
2018-Jun-14 17:00N 36°13' W 007°42'711.7
2018-Jun-14 16:21N 36°15' W 007°51'611.8
2018-Jun-14 15:52N 36°16' W 007°58'911.7
2018-Jun-14 15:06N 36°19' W 008°09'211.5
2018-Jun-14 14:55N 36°19' W 008°12'611.5
2018-Jun-14 14:26N 36°20' W 008°18'611.9
2018-Jun-14 13:57N 36°22' W 008°25'811.7
2018-Jun-14 13:17N 36°24' W 008°35'311.5
2018-Jun-14 13:01N 36°24' W 008°38'711.6
2018-Jun-14 12:24N 36°26' W 008°47'511.7
2018-Jun-14 12:00N 36°28' W 008°52'611.6
2018-Jun-14 11:30N 36°29' W 008°59'711.3
2018-Jun-14 10:53N 36°31' W 009°08'6311.3
2018-Jun-14 05:17N 37°27' W 009°44'311.7
2018-Jun-14 05:00N 37°30' W 009°45'611.7
2018-Jun-14 04:30N 37°36' W 009°47'811.6
2018-Jun-14 03:47N 37°44' W 009°49'911.8
2018-Jun-14 03:03N 37°53' W 009°52'311.6
2018-Jun-14 02:49N 37°55' W 009°53'411.7
2018-Jun-14 02:29N 37°59' W 009°54'611.4
2018-Jun-14 02:00N 38°04' W 009°55'611.7
2018-Jun-14 01:29N 38°10' W 009°57'611.5
2018-Jun-14 01:00N 38°16' W 009°59'611.3
2018-Jun-14 00:30N 38°21' W 010°00'611.4
2018-Jun-14 00:00N 38°27' W 010°02'611.7
2018-Jun-13 23:29N 38°33' W 010°03'511.3
2018-Jun-13 23:00N 38°38' W 010°05'611.8
2018-Jun-13 22:30N 38°44' W 010°06'611.9
2018-Jun-13 22:00N 38°50' W 010°06'611.6
2018-Jun-13 21:30N 38°56' W 010°06'611.5
2018-Jun-13 21:00N 39°01' W 010°06'612.0
2018-Jun-13 20:30N 39°07' W 010°06'  

Dump ship's entire track history